Terminal Aerodrome Forecast
Issued by NWS Charleston, WV

Current Version | Previous Version | Text Only | Print | Product List | Glossary Off
Versions: 1 2 3 4 5 6 7 8 9 10 11 12 13 14 15 16 17 18 19 20 21 22 23 24 25 26 27

000
FTUS41 KRLX 300400 AAC
TAFHTS
TAF AMD
KHTS 300432Z 3005/3024 00000KT 1/4SM FG OVC001
     FM301200 00000KT 2SM BR BKN003
     FM301300 VRB03KT P6SM FEW050
     FM301700 28006KT P6SM BKN050=

USA.gov is the U.S. government's official web portal to all federal, state and local government web resources and services.